createdAt,value
2023-05-19T00:00:08.929Z,174.67
2023-05-19T00:01:09.001Z,174.14
2023-05-19T00:02:09.098Z,178.56
2023-05-19T00:03:09.329Z,179.75
2023-05-19T00:04:09.175Z,181.86
2023-05-19T00:05:09.225Z,177.78
2023-05-19T00:06:09.374Z,180.47
2023-05-19T00:07:09.342Z,178.10
2023-05-19T00:08:09.416Z,179.67
2023-05-19T00:09:09.502Z,181.41
2023-05-19T00:10:09.540Z,176.72
2023-05-19T00:11:09.616Z,178.98
2023-05-19T00:12:09.657Z,173.98
2023-05-19T00:13:09.727Z,172.71
2023-05-19T00:14:09.830Z,169.09
2023-05-19T00:15:09.851Z,174.08
2023-05-19T00:16:09.952Z,169.26
2023-05-19T00:17:09.966Z,170.50
2023-05-19T00:18:10.100Z,180.31
2023-05-19T00:19:10.511Z,180.09
2023-05-19T00:20:10.127Z,183.81
2023-05-19T00:21:10.194Z,186.90
2023-05-19T00:22:10.257Z,187.28
2023-05-19T00:23:10.306Z,188.30
2023-05-19T00:24:10.359Z,183.18
2023-05-19T00:25:10.415Z,187.11
2023-05-19T00:26:10.498Z,196.18
2023-05-19T00:27:10.541Z,187.64
2023-05-19T00:28:10.603Z,182.61
2023-05-19T00:29:10.675Z,180.61
2023-05-19T00:30:10.743Z,185.59
2023-05-19T00:31:10.772Z,182.09
2023-05-19T00:32:10.910Z,191.16
2023-05-19T00:33:10.995Z,187.55
2023-05-19T00:34:10.940Z,189.56
2023-05-19T00:35:11.003Z,188.13
2023-05-19T00:36:11.061Z,185.57
2023-05-19T00:37:11.095Z,187.50
2023-05-19T00:38:11.161Z,192.02
2023-05-19T00:39:11.208Z,193.25
2023-05-19T00:40:11.271Z,198.94
2023-05-19T00:41:11.319Z,200.73
2023-05-19T00:42:11.359Z,203.63
2023-05-19T00:43:11.450Z,192.70
2023-05-19T00:44:11.480Z,203.87
2023-05-19T00:45:11.545Z,202.89
2023-05-19T00:46:11.684Z,201.40
2023-05-19T00:47:11.664Z,194.46
2023-05-19T00:48:11.714Z,189.33
2023-05-19T00:49:11.776Z,198.48
2023-05-19T00:50:11.824Z,189.93
2023-05-19T00:51:11.875Z,192.55
2023-05-19T00:52:11.917Z,201.57
2023-05-19T00:53:11.985Z,200.42
2023-05-19T00:54:12.069Z,199.20
2023-05-19T00:55:12.114Z,201.76
2023-05-19T00:56:12.165Z,199.51
2023-05-19T00:57:12.228Z,213.20
2023-05-19T00:58:12.293Z,207.54
2023-05-19T00:59:12.337Z,204.71
2023-05-19T01:00:12.418Z,204.58
2023-05-19T01:01:12.621Z,211.61
2023-05-19T01:02:12.528Z,208.76
2023-05-19T01:03:12.681Z,214.32
2023-05-19T01:04:12.656Z,208.02
2023-05-19T01:05:12.724Z,206.46
2023-05-19T01:06:12.777Z,205.93
2023-05-19T01:07:12.860Z,205.45
2023-05-19T01:08:12.916Z,197.86
2023-05-19T01:09:12.940Z,203.39
2023-05-19T01:10:13.025Z,203.78
2023-05-19T01:11:13.089Z,211.00
2023-05-19T01:12:13.140Z,211.45
2023-05-19T01:13:13.214Z,206.16
2023-05-19T01:14:13.259Z,208.05
2023-05-19T01:15:13.326Z,202.86
2023-05-19T01:16:13.522Z,204.29
2023-05-19T01:17:13.446Z,210.24
2023-05-19T01:18:13.623Z,202.83
2023-05-19T01:19:13.658Z,202.72
2023-05-19T01:20:13.647Z,211.10
2023-05-19T01:21:13.742Z,209.65
2023-05-19T01:22:13.765Z,210.82
2023-05-19T01:23:13.835Z,205.74
2023-05-19T01:24:13.913Z,204.41
2023-05-19T01:25:13.962Z,205.58
2023-05-19T01:26:14.052Z,208.54
2023-05-19T01:27:14.085Z,206.60
2023-05-19T01:28:14.134Z,212.95
2023-05-19T01:29:14.203Z,212.79
2023-05-19T01:30:14.285Z,219.63
2023-05-19T01:31:14.379Z,217.05
2023-05-19T01:32:14.441Z,220.21
2023-05-19T01:33:14.555Z,221.78
2023-05-19T01:34:14.554Z,223.07
2023-05-19T01:35:14.605Z,222.61
2023-05-19T01:36:14.664Z,216.55
2023-05-19T01:37:14.740Z,217.37
2023-05-19T01:38:14.813Z,223.04
2023-05-19T01:39:14.875Z,221.97
2023-05-19T01:40:14.928Z,223.06
2023-05-19T01:41:14.990Z,223.28
2023-05-19T01:42:15.074Z,227.51
2023-05-19T01:43:15.125Z,222.68
2023-05-19T01:44:15.186Z,223.24
2023-05-19T01:45:15.257Z,225.43
2023-05-19T01:46:15.348Z,232.40
2023-05-19T01:47:15.380Z,234.39
2023-05-19T01:48:15.489Z,236.91
2023-05-19T01:49:15.505Z,239.19
2023-05-19T01:50:15.585Z,237.31
2023-05-19T01:51:15.637Z,229.58
2023-05-19T01:52:15.698Z,229.95
2023-05-19T01:53:15.752Z,229.09
2023-05-19T01:54:15.808Z,229.81
2023-05-19T01:55:15.892Z,233.31
2023-05-19T01:56:15.959Z,230.20
2023-05-19T01:57:16.009Z,227.82
2023-05-19T01:58:16.075Z,225.22
2023-05-19T01:59:16.143Z,221.57
2023-05-19T02:00:16.190Z,216.42
2023-05-19T02:01:16.293Z,215.56
2023-05-19T02:02:16.303Z,218.56
2023-05-19T02:03:16.359Z,219.21
2023-05-19T02:04:16.465Z,218.35
2023-05-19T02:05:16.459Z,217.40
2023-05-19T02:06:16.545Z,218.92
2023-05-19T02:07:16.583Z,221.67
2023-05-19T02:08:16.647Z,221.72
2023-05-19T02:09:16.699Z,225.95
2023-05-19T02:10:16.741Z,221.30
2023-05-19T02:11:16.817Z,227.97
2023-05-19T02:12:16.866Z,229.51
2023-05-19T02:13:16.917Z,227.51
2023-05-19T02:14:16.989Z,227.22
2023-05-19T02:15:17.068Z,225.43
2023-05-19T02:16:17.142Z,231.62
2023-05-19T02:17:17.174Z,226.66
2023-05-19T02:18:17.253Z,226.14
2023-05-19T02:19:17.362Z,228.99
2023-05-19T02:20:17.375Z,234.27
2023-05-19T02:21:17.440Z,229.16
2023-05-19T02:22:17.482Z,225.19
2023-05-19T02:23:17.541Z,223.74
2023-05-19T02:24:17.593Z,227.85
2023-05-19T02:25:17.652Z,232.11
2023-05-19T02:26:17.732Z,233.26
2023-05-19T02:27:17.818Z,229.90
2023-05-19T02:28:17.818Z,231.31
2023-05-19T02:29:17.894Z,232.42
2023-05-19T02:30:17.965Z,231.24
2023-05-19T02:31:18.045Z,235.89
2023-05-19T02:32:18.329Z,236.13
2023-05-19T02:33:18.144Z,233.58
2023-05-19T02:34:18.216Z,234.59
2023-05-19T02:35:18.279Z,233.13
2023-05-19T02:36:18.330Z,233.40
2023-05-19T02:37:18.412Z,232.75
2023-05-19T02:38:18.452Z,233.25
2023-05-19T02:39:18.536Z,233.79
2023-05-19T02:40:18.584Z,241.34
2023-05-19T02:41:18.663Z,239.85
2023-05-19T02:42:18.740Z,238.23
2023-05-19T02:43:18.787Z,237.63
2023-05-19T02:44:18.838Z,236.39
2023-05-19T02:45:18.913Z,236.29
2023-05-19T02:46:19.002Z,240.05
2023-05-19T02:47:19.041Z,236.22
2023-05-19T02:48:19.127Z,231.79
2023-05-19T02:49:19.169Z,237.75
2023-05-19T02:50:19.258Z,236.54
2023-05-19T02:51:19.310Z,233.59
2023-05-19T02:52:19.360Z,236.06
2023-05-19T02:53:19.449Z,235.36
2023-05-19T02:54:19.507Z,239.79
2023-05-19T02:55:19.562Z,245.24
2023-05-19T02:56:19.620Z,241.59
2023-05-19T02:57:19.700Z,235.76
2023-05-19T02:58:19.765Z,236.69
2023-05-19T02:59:19.822Z,236.46
2023-05-19T03:00:19.889Z,234.17
2023-05-19T03:01:19.966Z,233.10
2023-05-19T03:02:20.046Z,231.43
2023-05-19T03:03:20.236Z,241.31
2023-05-19T03:04:20.138Z,240.91
2023-05-19T03:05:20.198Z,244.35
2023-05-19T03:06:20.261Z,246.84
2023-05-19T03:07:20.331Z,245.80
2023-05-19T03:08:20.381Z,244.57
2023-05-19T03:09:20.452Z,244.81
2023-05-19T03:10:20.529Z,242.69
2023-05-19T03:11:20.580Z,243.72
2023-05-19T03:12:20.638Z,244.33
2023-05-19T03:13:20.713Z,245.57
2023-05-19T03:14:20.777Z,240.79
2023-05-19T03:15:20.838Z,239.78
2023-05-19T03:16:20.917Z,239.01
2023-05-19T03:17:21.027Z,237.25
2023-05-19T03:18:21.114Z,240.58
2023-05-19T03:19:21.209Z,233.97
2023-05-19T03:20:21.144Z,240.98
2023-05-19T03:21:21.233Z,241.92
2023-05-19T03:22:21.274Z,236.72
2023-05-19T03:23:21.335Z,242.83
2023-05-19T03:24:21.413Z,245.87
2023-05-19T03:25:21.481Z,242.69
2023-05-19T03:26:21.529Z,242.07
2023-05-19T03:27:21.606Z,237.56
2023-05-19T03:28:21.679Z,239.82
2023-05-19T03:29:21.742Z,241.74
2023-05-19T03:30:21.795Z,242.75
2023-05-19T03:31:21.933Z,244.85
2023-05-19T03:32:22.012Z,242.96
2023-05-19T03:33:22.140Z,240.68
2023-05-19T03:34:22.029Z,246.33
2023-05-19T03:35:22.048Z,247.16
2023-05-19T03:36:22.141Z,249.12
2023-05-19T03:37:22.126Z,245.52
2023-05-19T03:38:22.211Z,243.30
2023-05-19T03:39:22.296Z,241.55
2023-05-19T03:40:22.335Z,246.28
2023-05-19T03:41:22.393Z,244.18
2023-05-19T03:42:22.456Z,248.61
2023-05-19T03:43:22.515Z,246.03
2023-05-19T03:44:22.563Z,241.12
2023-05-19T03:45:22.627Z,242.10
2023-05-19T03:46:22.836Z,241.61
2023-05-19T03:47:22.820Z,245.16
2023-05-19T03:48:22.821Z,243.92
2023-05-19T03:49:22.905Z,245.57
2023-05-19T03:50:22.970Z,245.37
2023-05-19T03:51:23.018Z,247.07
2023-05-19T03:52:23.102Z,244.79
2023-05-19T03:53:23.165Z,245.43
2023-05-19T03:54:23.228Z,246.70
2023-05-19T03:55:23.277Z,248.49
2023-05-19T03:56:23.357Z,247.52
2023-05-19T03:57:23.404Z,245.74
2023-05-19T03:58:23.476Z,244.94
2023-05-19T03:59:23.537Z,244.02
2023-05-19T04:00:23.593Z,245.03
2023-05-19T04:01:23.645Z,243.96
2023-05-19T04:02:23.749Z,241.63
2023-05-19T04:03:23.857Z,245.30
2023-05-19T04:04:23.856Z,249.09
2023-05-19T04:05:23.856Z,246.97
2023-05-19T04:06:23.885Z,245.33
2023-05-19T04:07:23.948Z,249.20
2023-05-19T04:08:24.004Z,245.43
2023-05-19T04:09:24.079Z,245.64
2023-05-19T04:10:24.108Z,245.85
2023-05-19T04:11:24.157Z,245.38
2023-05-19T04:12:24.213Z,243.50
2023-05-19T04:13:24.261Z,241.74
2023-05-19T04:14:24.288Z,240.26
2023-05-19T04:15:24.380Z,241.25
2023-05-19T04:16:24.499Z,243.01
2023-05-19T04:17:24.461Z,241.81
2023-05-19T04:18:25.489Z,243.52
2023-05-19T04:19:24.687Z,242.39
2023-05-19T04:20:24.582Z,244.97
2023-05-19T04:21:24.621Z,244.76
2023-05-19T04:22:24.658Z,243.72
2023-05-19T04:23:24.730Z,241.98
2023-05-19T04:24:24.770Z,238.16
2023-05-19T04:25:24.827Z,237.51
2023-05-19T04:26:24.913Z,236.04
2023-05-19T04:27:24.950Z,232.09
2023-05-19T04:28:24.983Z,232.07
2023-05-19T04:29:25.011Z,231.16
2023-05-19T04:30:25.066Z,232.41
2023-05-19T04:31:25.115Z,236.99
2023-05-19T04:32:25.159Z,234.24
2023-05-19T04:33:25.179Z,232.01
2023-05-19T04:34:25.223Z,233.35
2023-05-19T04:35:25.263Z,235.02
2023-05-19T04:36:25.308Z,235.56
2023-05-19T04:37:25.351Z,236.57
2023-05-19T04:38:25.384Z,236.44
2023-05-19T04:39:25.427Z,240.53
2023-05-19T04:40:25.475Z,234.92
2023-05-19T04:41:25.520Z,242.73
2023-05-19T04:42:25.565Z,239.43
2023-05-19T04:43:25.597Z,236.42
2023-05-19T04:44:25.665Z,233.95
2023-05-19T04:45:25.698Z,235.46
2023-05-19T04:46:25.757Z,236.63
2023-05-19T04:47:25.862Z,235.08
2023-05-19T04:48:25.825Z,234.26
2023-05-19T04:49:25.891Z,231.03
2023-05-19T04:50:25.951Z,233.97
2023-05-19T04:51:26.020Z,232.35
2023-05-19T04:52:26.084Z,231.36
2023-05-19T04:53:26.132Z,236.84
2023-05-19T04:54:26.217Z,231.67
2023-05-19T04:55:26.263Z,231.69
2023-05-19T04:56:26.324Z,233.35
2023-05-19T04:57:26.408Z,236.61
2023-05-19T04:58:26.447Z,240.64
2023-05-19T04:59:26.511Z,248.81
2023-05-19T05:00:26.574Z,250.00
2023-05-19T05:01:26.735Z,248.87
2023-05-19T05:02:26.755Z,248.16
2023-05-19T05:03:26.923Z,245.98
2023-05-19T05:04:26.861Z,245.87
2023-05-19T05:05:26.882Z,250.26
2023-05-19T05:06:26.965Z,250.00
2023-05-19T05:07:27.074Z,248.63
2023-05-19T05:08:27.063Z,246.83
2023-05-19T05:09:27.132Z,249.11
2023-05-19T05:10:27.196Z,245.40
2023-05-19T05:11:27.273Z,232.56
2023-05-19T05:12:27.332Z,224.98
2023-05-19T05:13:27.417Z,222.00
2023-05-19T05:14:27.464Z,230.57
2023-05-19T05:15:27.503Z,230.40
2023-05-19T05:16:27.610Z,220.38
2023-05-19T05:17:27.667Z,207.97
2023-05-19T05:18:27.729Z,196.24
2023-05-19T05:19:27.838Z,196.74
2023-05-19T05:20:27.826Z,195.84
2023-05-19T05:21:27.866Z,187.36
2023-05-19T05:22:27.942Z,184.71
2023-05-19T05:23:28.123Z,189.11
2023-05-19T05:24:28.062Z,190.26
2023-05-19T05:25:28.118Z,189.65
2023-05-19T05:26:28.192Z,188.32
2023-05-19T05:27:28.241Z,183.82
2023-05-19T05:28:28.319Z,184.95
2023-05-19T05:29:28.360Z,191.68
2023-05-19T05:30:28.451Z,190.83
2023-05-19T05:31:28.516Z,191.45
2023-05-19T05:32:28.668Z,183.43
2023-05-19T05:33:28.645Z,175.43
2023-05-19T05:34:28.692Z,173.15
2023-05-19T05:35:28.752Z,178.47
2023-05-19T05:36:28.835Z,182.50
2023-05-19T05:37:28.891Z,185.92
2023-05-19T05:38:28.942Z,184.59
2023-05-19T05:39:28.995Z,178.82
2023-05-19T05:40:29.078Z,177.96
2023-05-19T05:41:29.123Z,178.43
2023-05-19T05:42:29.833Z,178.90
2023-05-19T05:43:29.248Z,187.78
2023-05-19T05:44:29.313Z,184.67
2023-05-19T05:45:29.367Z,180.67
2023-05-19T05:46:29.476Z,181.90
2023-05-19T05:47:29.518Z,177.17
2023-05-19T05:48:29.561Z,175.41
2023-05-19T05:49:29.618Z,173.16
2023-05-19T05:50:29.724Z,173.81
2023-05-19T05:51:29.747Z,173.17
2023-05-19T05:52:29.795Z,172.78
2023-05-19T05:53:29.878Z,174.06
2023-05-19T05:54:29.914Z,172.88
2023-05-19T05:55:30.132Z,168.21
2023-05-19T05:56:30.092Z,173.43
2023-05-19T05:57:30.096Z,172.67
2023-05-19T05:58:30.190Z,180.21
2023-05-19T05:59:30.222Z,192.86
2023-05-19T06:00:30.446Z,196.56
2023-05-19T06:01:30.307Z,215.94
2023-05-19T06:02:30.427Z,221.05
2023-05-19T06:03:30.453Z,200.50
2023-05-19T06:04:30.498Z,207.78
2023-05-19T06:05:30.587Z,229.71
2023-05-19T06:06:30.625Z,226.39
2023-05-19T06:07:30.658Z,231.96
2023-05-19T06:08:30.730Z,229.11
2023-05-19T06:09:30.780Z,230.29
2023-05-19T06:10:30.927Z,228.24
2023-05-19T06:11:30.881Z,223.43
2023-05-19T06:12:30.946Z,203.76
2023-05-19T06:13:31.010Z,203.28
2023-05-19T06:14:31.048Z,217.97
2023-05-19T06:15:31.274Z,212.00
2023-05-19T06:16:31.251Z,229.66
2023-05-19T06:17:31.278Z,243.29
2023-05-19T06:18:31.268Z,227.28
2023-05-19T06:19:31.376Z,228.55
2023-05-19T06:20:31.723Z,223.45
2023-05-19T06:21:31.438Z,232.50
2023-05-19T06:22:31.473Z,244.33
2023-05-19T06:23:31.530Z,250.06
2023-05-19T06:24:31.590Z,247.51
2023-05-19T06:25:31.844Z,246.42
2023-05-19T06:26:31.689Z,250.00
2023-05-19T06:27:33.306Z,248.46
2023-05-19T06:28:31.738Z,246.69
2023-05-19T06:29:31.720Z,247.86
2023-05-19T06:30:31.827Z,248.22
2023-05-19T06:31:31.734Z,245.91
2023-05-19T06:32:31.701Z,249.17
2023-05-19T06:33:31.682Z,247.42
2023-05-19T06:34:31.666Z,246.94
2023-05-19T06:35:31.671Z,246.05
2023-05-19T06:36:31.656Z,248.30
2023-05-19T06:37:31.643Z,247.31
2023-05-19T06:38:31.657Z,246.10
2023-05-19T06:39:31.655Z,246.42
2023-05-19T06:40:31.840Z,243.71
2023-05-19T06:41:31.623Z,243.15
2023-05-19T06:42:31.627Z,243.93
2023-05-19T06:43:31.686Z,241.09
2023-05-19T06:44:31.616Z,240.57
2023-05-19T06:45:31.647Z,240.96
2023-05-19T06:46:31.640Z,235.99
2023-05-19T06:47:31.646Z,234.97
2023-05-19T06:48:31.584Z,234.44
2023-05-19T06:49:31.585Z,231.96
2023-05-19T06:50:31.848Z,232.30
2023-05-19T06:51:31.563Z,233.31
2023-05-19T06:52:31.548Z,232.22
2023-05-19T06:53:31.536Z,231.85
2023-05-19T06:54:31.530Z,234.15
2023-05-19T06:55:31.549Z,234.25
2023-05-19T06:56:31.535Z,235.68
2023-05-19T06:57:31.504Z,236.80
2023-05-19T06:58:31.533Z,236.02
2023-05-19T06:59:31.506Z,236.80
2023-05-19T07:00:31.665Z,235.45
2023-05-19T07:01:31.519Z,236.82
2023-05-19T07:02:31.603Z,237.42
2023-05-19T07:03:31.610Z,238.37
2023-05-19T07:04:31.483Z,240.98
2023-05-19T07:05:31.466Z,237.44
2023-05-19T07:06:31.458Z,243.38
2023-05-19T07:07:31.463Z,243.47
2023-05-19T07:08:31.428Z,240.50
2023-05-19T07:09:31.425Z,242.63
2023-05-19T07:10:31.654Z,242.17
2023-05-19T07:11:31.428Z,244.67
2023-05-19T07:12:31.409Z,245.71
2023-05-19T07:13:31.435Z,244.79
2023-05-19T07:14:31.462Z,244.35
2023-05-19T07:15:31.519Z,244.43
2023-05-19T07:16:31.590Z,240.48
2023-05-19T07:17:31.652Z,238.51
2023-05-19T07:18:31.650Z,239.53
2023-05-19T07:19:31.723Z,235.51
2023-05-19T07:20:31.903Z,237.05
2023-05-19T07:21:31.743Z,236.49
2023-05-19T07:22:31.785Z,236.33
2023-05-19T07:23:31.844Z,238.44
2023-05-19T07:24:31.873Z,238.75
2023-05-19T07:25:31.901Z,239.70
2023-05-19T07:26:31.949Z,239.51
2023-05-19T07:27:31.992Z,240.41
2023-05-19T07:28:32.024Z,240.11
2023-05-19T07:29:32.066Z,241.11
2023-05-19T07:30:32.318Z,237.97
2023-05-19T07:31:32.209Z,235.85
2023-05-19T07:32:32.210Z,237.79
2023-05-19T07:33:32.212Z,241.01
2023-05-19T07:34:32.251Z,240.41
2023-05-19T07:35:32.328Z,239.10
2023-05-19T07:36:32.337Z,237.25
2023-05-19T07:37:32.365Z,237.02
2023-05-19T07:38:32.415Z,237.79
2023-05-19T07:39:32.409Z,237.53
2023-05-19T07:40:32.631Z,235.24
2023-05-19T07:41:33.209Z,236.21
2023-05-19T07:42:32.512Z,235.61
2023-05-19T07:43:32.554Z,235.57
2023-05-19T07:44:32.566Z,231.30
2023-05-19T07:45:32.624Z,231.79
2023-05-19T07:46:32.639Z,231.39
2023-05-19T07:47:32.774Z,229.65
2023-05-19T07:48:32.672Z,230.86
2023-05-19T07:49:32.704Z,228.61
2023-05-19T07:50:32.813Z,224.17
2023-05-19T07:51:32.746Z,223.09
2023-05-19T07:52:32.795Z,223.08
2023-05-19T07:53:32.831Z,222.24
2023-05-19T07:54:32.846Z,222.54
2023-05-19T07:55:32.879Z,219.78
2023-05-19T07:56:32.880Z,214.93
2023-05-19T07:57:32.925Z,212.89
2023-05-19T07:58:32.950Z,209.21
2023-05-19T07:59:32.978Z,209.62
2023-05-19T08:00:33.188Z,208.11
2023-05-19T08:01:33.026Z,206.41
2023-05-19T08:02:33.073Z,208.15
2023-05-19T08:03:33.314Z,206.74
2023-05-19T08:04:33.194Z,204.95
2023-05-19T08:05:33.137Z,203.75
2023-05-19T08:06:33.156Z,202.56
2023-05-19T08:07:33.200Z,202.54
2023-05-19T08:08:33.229Z,202.25
2023-05-19T08:09:33.240Z,204.39
2023-05-19T08:10:33.455Z,203.64
2023-05-19T08:11:33.288Z,203.01
2023-05-19T08:12:33.312Z,205.96
2023-05-19T08:13:33.314Z,203.13
2023-05-19T08:14:33.330Z,202.90
2023-05-19T08:15:33.868Z,202.31
2023-05-19T08:16:33.379Z,202.63
2023-05-19T08:17:33.394Z,200.74
2023-05-19T08:18:33.409Z,202.60
2023-05-19T08:19:33.450Z,198.64
2023-05-19T08:20:33.607Z,200.16
2023-05-19T08:21:33.487Z,203.23
2023-05-19T08:22:33.512Z,202.36
2023-05-19T08:23:33.504Z,204.40
2023-05-19T08:24:33.534Z,206.44
2023-05-19T08:25:33.547Z,206.88
2023-05-19T08:26:35.747Z,207.03
2023-05-19T08:27:33.558Z,208.55
2023-05-19T08:28:33.547Z,205.56
2023-05-19T08:29:33.541Z,210.34
2023-05-19T08:30:33.732Z,212.82
2023-05-19T08:31:33.542Z,212.29
2023-05-19T08:32:33.533Z,214.25
2023-05-19T08:33:33.489Z,215.83
2023-05-19T08:34:33.502Z,215.14
2023-05-19T08:35:33.485Z,214.52
2023-05-19T08:36:33.489Z,214.53
2023-05-19T08:37:34.196Z,213.38
2023-05-19T08:38:33.476Z,216.48
2023-05-19T08:39:33.464Z,214.74
2023-05-19T08:40:33.758Z,215.04
2023-05-19T08:41:33.460Z,214.76
2023-05-19T08:42:33.454Z,216.92
2023-05-19T08:43:33.424Z,216.41
2023-05-19T08:44:33.415Z,213.07
2023-05-19T08:45:33.555Z,215.06
2023-05-19T08:46:33.441Z,212.70
2023-05-19T08:47:33.468Z,214.60
2023-05-19T08:48:33.409Z,211.45
2023-05-19T08:49:33.392Z,212.98
2023-05-19T08:50:33.632Z,213.85
2023-05-19T08:51:33.377Z,213.21
2023-05-19T08:52:33.356Z,213.60
2023-05-19T08:53:34.627Z,213.51
2023-05-19T08:54:33.361Z,215.16
2023-05-19T08:55:33.508Z,213.17
2023-05-19T08:56:33.323Z,212.82
2023-05-19T08:57:33.331Z,214.31
2023-05-19T08:58:33.334Z,215.94
2023-05-19T08:59:33.324Z,215.41
2023-05-19T09:00:33.468Z,216.17
2023-05-19T09:01:33.345Z,215.55
2023-05-19T09:02:33.322Z,214.40
2023-05-19T09:03:33.361Z,215.51
2023-05-19T09:04:33.342Z,216.07
2023-05-19T09:05:33.709Z,217.24
2023-05-19T09:06:33.246Z,216.70
2023-05-19T09:07:33.395Z,214.86
2023-05-19T09:08:33.249Z,215.16
2023-05-19T09:09:33.230Z,214.19
2023-05-19T09:10:33.240Z,216.76
2023-05-19T09:11:33.225Z,216.02
2023-05-19T09:12:33.202Z,216.33
2023-05-19T09:13:33.220Z,217.52
2023-05-19T09:14:33.188Z,215.75
2023-05-19T09:15:33.318Z,215.80
2023-05-19T09:16:33.270Z,215.30
2023-05-19T09:17:33.205Z,217.44
2023-05-19T09:18:33.154Z,217.19
2023-05-19T09:19:33.238Z,218.70
2023-05-19T09:20:33.167Z,217.92
2023-05-19T09:21:33.221Z,215.52
2023-05-19T09:22:33.148Z,218.28
2023-05-19T09:23:33.152Z,218.03
2023-05-19T09:24:33.137Z,214.84
2023-05-19T09:25:33.265Z,214.61
2023-05-19T09:26:33.123Z,217.97
2023-05-19T09:27:33.096Z,217.84
2023-05-19T09:28:33.183Z,217.36
2023-05-19T09:29:33.093Z,217.07
2023-05-19T09:30:33.072Z,217.94
2023-05-19T09:31:33.108Z,213.21
2023-05-19T09:32:33.197Z,213.78
2023-05-19T09:33:33.046Z,214.13
2023-05-19T09:34:33.040Z,213.88
2023-05-19T09:35:33.288Z,215.44
2023-05-19T09:36:33.030Z,217.41
2023-05-19T09:37:33.039Z,216.22
2023-05-19T09:38:33.037Z,218.30
2023-05-19T09:39:33.033Z,220.45
2023-05-19T09:40:33.013Z,214.82
2023-05-19T09:41:33.001Z,219.39
2023-05-19T09:42:32.999Z,218.22
2023-05-19T09:43:33.019Z,214.75
2023-05-19T09:44:32.991Z,217.84
2023-05-19T09:45:33.142Z,219.55
2023-05-19T09:46:33.002Z,213.79
2023-05-19T09:47:32.992Z,215.20
2023-05-19T09:48:32.951Z,212.80
2023-05-19T09:49:33.058Z,215.71
2023-05-19T09:50:32.978Z,217.95
2023-05-19T09:51:32.955Z,215.79
2023-05-19T09:52:32.978Z,218.55
2023-05-19T09:53:32.971Z,215.37
2023-05-19T09:54:32.953Z,215.39
2023-05-19T09:55:33.291Z,217.26
2023-05-19T09:56:32.976Z,216.11
2023-05-19T09:57:32.979Z,216.72
2023-05-19T09:58:32.961Z,216.18
2023-05-19T09:59:33.972Z,212.81
2023-05-19T10:00:33.119Z,212.20
2023-05-19T10:01:33.102Z,214.80
2023-05-19T10:02:33.002Z,212.03
2023-05-19T10:03:33.126Z,213.58
2023-05-19T10:04:33.026Z,215.11
2023-05-19T10:05:33.150Z,209.88
2023-05-19T10:06:32.990Z,213.71
2023-05-19T10:07:32.999Z,211.16
2023-05-19T10:08:33.000Z,209.58
2023-05-19T10:09:32.996Z,211.03
2023-05-19T10:10:33.003Z,211.08
2023-05-19T10:11:32.995Z,212.24
2023-05-19T10:12:33.001Z,208.53
2023-05-19T10:13:33.020Z,211.12
2023-05-19T10:14:33.002Z,215.48
2023-05-19T10:15:36.101Z,213.92
2023-05-19T10:16:34.041Z,214.10
2023-05-19T10:17:33.019Z,214.00
2023-05-19T10:18:33.002Z,214.38
2023-05-19T10:19:33.029Z,212.05
2023-05-19T10:20:33.170Z,211.48
2023-05-19T10:21:33.001Z,210.27
2023-05-19T10:22:32.974Z,211.27
2023-05-19T10:23:32.963Z,211.35
2023-05-19T10:24:32.956Z,211.80
2023-05-19T10:25:33.107Z,213.61
2023-05-19T10:26:32.941Z,212.44
2023-05-19T10:27:32.944Z,215.61
2023-05-19T10:28:32.925Z,212.51
2023-05-19T10:29:32.922Z,210.37
2023-05-19T10:30:32.918Z,208.33
2023-05-19T10:31:32.948Z,211.55
2023-05-19T10:32:33.002Z,212.15
2023-05-19T10:33:32.894Z,209.37
2023-05-19T10:34:32.866Z,206.41
2023-05-19T10:35:32.916Z,205.86
2023-05-19T10:36:32.857Z,210.50
2023-05-19T10:37:32.856Z,211.85
2023-05-19T10:38:32.844Z,207.67
2023-05-19T10:39:32.847Z,207.01
2023-05-19T10:40:32.839Z,210.04
2023-05-19T10:41:32.816Z,208.29
2023-05-19T10:42:32.832Z,204.69
2023-05-19T10:43:32.805Z,206.81
2023-05-19T10:44:32.814Z,207.42
2023-05-19T10:45:32.940Z,207.99
2023-05-19T10:46:32.813Z,206.04
2023-05-19T10:47:32.839Z,206.89
2023-05-19T10:48:32.770Z,208.81
2023-05-19T10:49:32.767Z,211.63
2023-05-19T10:50:32.760Z,211.93
2023-05-19T10:51:32.824Z,205.48
2023-05-19T10:52:32.750Z,209.57
2023-05-19T10:53:32.738Z,208.33
2023-05-19T10:54:32.747Z,202.80
2023-05-19T10:55:32.967Z,207.52
2023-05-19T10:56:32.723Z,205.85
2023-05-19T10:57:32.729Z,208.01
2023-05-19T10:58:32.731Z,205.89
2023-05-19T10:59:32.718Z,207.54
2023-05-19T11:00:32.699Z,204.83
2023-05-19T11:01:32.717Z,203.13
2023-05-19T11:02:32.732Z,202.99
2023-05-19T11:03:32.707Z,201.57
2023-05-19T11:04:32.800Z,199.82
2023-05-19T11:05:32.833Z,201.81
2023-05-19T11:06:32.733Z,201.28
2023-05-19T11:07:32.650Z,206.06
2023-05-19T11:08:32.667Z,203.27
2023-05-19T11:09:39.876Z,200.02
2023-05-19T11:10:33.629Z,200.25
2023-05-19T11:11:33.313Z,200.63
2023-05-19T11:12:32.627Z,202.17
2023-05-19T11:13:32.625Z,201.05
2023-05-19T11:14:32.601Z,200.90
2023-05-19T11:15:32.956Z,199.62
2023-05-19T11:16:32.731Z,198.27
2023-05-19T11:17:33.213Z,197.07
2023-05-19T11:18:32.582Z,197.89
2023-05-19T11:19:32.574Z,198.25
2023-05-19T11:20:32.573Z,199.48
2023-05-19T11:21:32.650Z,193.48
2023-05-19T11:22:32.543Z,192.55
2023-05-19T11:23:33.499Z,195.73
2023-05-19T11:24:32.521Z,197.55
2023-05-19T11:25:32.654Z,193.81
2023-05-19T11:26:32.522Z,196.87
2023-05-19T11:27:32.500Z,193.78
2023-05-19T11:28:32.492Z,193.19
2023-05-19T11:29:34.261Z,190.25
2023-05-19T11:30:32.495Z,190.43
2023-05-19T11:31:32.531Z,190.65
2023-05-19T11:32:32.536Z,190.86
2023-05-19T11:33:32.466Z,192.69
2023-05-19T11:34:32.445Z,192.77
2023-05-19T11:35:34.004Z,190.72
2023-05-19T11:36:32.452Z,190.47
2023-05-19T11:37:32.450Z,191.08
2023-05-19T11:38:32.415Z,191.28
2023-05-19T11:39:32.419Z,187.31
2023-05-19T11:40:32.421Z,186.00
2023-05-19T11:41:32.423Z,188.57
2023-05-19T11:42:32.463Z,185.73
2023-05-19T11:43:32.400Z,189.49
2023-05-19T11:44:32.395Z,190.16
2023-05-19T11:45:32.596Z,186.23
2023-05-19T11:46:32.470Z,185.51
2023-05-19T11:47:42.573Z,185.02
2023-05-19T11:48:33.463Z,185.34
2023-05-19T11:49:32.342Z,185.77
2023-05-19T11:50:32.357Z,185.35
2023-05-19T11:51:32.331Z,184.54
2023-05-19T11:52:32.336Z,186.28
2023-05-19T11:53:34.024Z,187.55
2023-05-19T11:54:32.310Z,184.11
2023-05-19T11:55:32.330Z,185.62
2023-05-19T11:56:32.295Z,184.31
2023-05-19T11:57:32.306Z,182.74
2023-05-19T11:58:32.284Z,182.49
2023-05-19T11:59:33.467Z,185.63
2023-05-19T12:00:32.278Z,185.65
2023-05-19T12:01:32.269Z,185.73
2023-05-19T12:02:32.295Z,183.86
2023-05-19T12:03:32.381Z,186.49
2023-05-19T12:04:32.294Z,183.46
2023-05-19T12:05:34.995Z,188.28
2023-05-19T12:06:33.289Z,188.44
2023-05-19T12:07:32.228Z,187.61
2023-05-19T12:08:32.236Z,181.72
2023-05-19T12:09:32.207Z,188.06
2023-05-19T12:10:32.191Z,189.68
2023-05-19T12:11:32.208Z,188.22
2023-05-19T12:12:32.186Z,189.57
2023-05-19T12:13:32.175Z,190.44
2023-05-19T12:14:32.169Z,186.14
2023-05-19T12:15:32.428Z,183.81
2023-05-19T12:16:33.476Z,183.78
2023-05-19T12:17:32.194Z,183.81
2023-05-19T12:18:32.171Z,181.98
2023-05-19T12:19:32.194Z,181.99
2023-05-19T12:20:32.140Z,180.78
2023-05-19T12:21:34.263Z,181.95
2023-05-19T12:22:32.114Z,184.06
2023-05-19T12:23:32.100Z,182.84
2023-05-19T12:24:32.111Z,184.51
2023-05-19T12:25:32.615Z,178.62
2023-05-19T12:26:32.096Z,178.05
2023-05-19T12:27:33.515Z,177.00
2023-05-19T12:28:32.354Z,175.56